sensor_id;sensor_type;location;lat;lon;timestamp;pressure;altitude;pressure_sealevel;temperature;humidity
3598;BME280;1813;52.016;8.714;2023-11-21T00:02:31;-16261.94;;;-139.71;88.20
3598;BME280;1813;52.016;8.714;2023-11-21T00:05:05;-16261.94;;;-139.71;88.73
3598;BME280;1813;52.016;8.714;2023-11-21T00:07:38;-16261.94;;;-139.71;89.15
3598;BME280;1813;52.016;8.714;2023-11-21T00:10:12;-16261.94;;;-139.71;89.71
3598;BME280;1813;52.016;8.714;2023-11-21T00:12:47;-16261.94;;;-139.71;90.23
3598;BME280;1813;52.016;8.714;2023-11-21T00:15:23;-16261.94;;;-139.71;90.49
3598;BME280;1813;52.016;8.714;2023-11-21T00:17:56;-16261.94;;;-139.71;90.68
3598;BME280;1813;52.016;8.714;2023-11-21T00:20:30;-16261.94;;;-139.71;90.80
3598;BME280;1813;52.016;8.714;2023-11-21T00:23:03;-16261.94;;;-139.71;90.99
3598;BME280;1813;52.016;8.714;2023-11-21T00:25:37;-16261.94;;;-139.71;91.38
3598;BME280;1813;52.016;8.714;2023-11-21T00:28:10;-16261.94;;;-139.71;91.34
3598;BME280;1813;52.016;8.714;2023-11-21T00:30:47;-16261.94;;;-139.71;91.29
3598;BME280;1813;52.016;8.714;2023-11-21T00:33:20;-16261.94;;;-139.71;91.44
3598;BME280;1813;52.016;8.714;2023-11-21T00:35:55;-16261.94;;;-139.71;91.30
3598;BME280;1813;52.016;8.714;2023-11-21T00:38:29;-16261.94;;;-139.71;91.22
3598;BME280;1813;52.016;8.714;2023-11-21T00:41:03;-16261.94;;;-139.71;91.30
3598;BME280;1813;52.016;8.714;2023-11-21T00:43:36;-16261.94;;;-139.71;91.23
3598;BME280;1813;52.016;8.714;2023-11-21T00:46:12;-16261.94;;;-139.71;91.19
3598;BME280;1813;52.016;8.714;2023-11-21T00:48:46;-16261.94;;;-139.71;91.26
3598;BME280;1813;52.016;8.714;2023-11-21T00:51:21;-16261.94;;;-139.71;91.26
3598;BME280;1813;52.016;8.714;2023-11-21T00:53:55;-16261.94;;;-139.71;91.14
3598;BME280;1813;52.016;8.714;2023-11-21T00:56:29;-16261.94;;;-139.71;91.14
3598;BME280;1813;52.016;8.714;2023-11-21T00:59:02;-16261.94;;;-139.71;91.09
3598;BME280;1813;52.016;8.714;2023-11-21T01:01:40;-16261.94;;;-139.71;90.91
3598;BME280;1813;52.016;8.714;2023-11-21T01:04:14;-16261.94;;;-139.71;90.84
3598;BME280;1813;52.016;8.714;2023-11-21T01:06:48;-16261.94;;;-139.71;90.72
3598;BME280;1813;52.016;8.714;2023-11-21T01:09:21;-16261.94;;;-139.71;90.79
3598;BME280;1813;52.016;8.714;2023-11-21T01:11:55;-16261.94;;;-139.71;90.64
3598;BME280;1813;52.016;8.714;2023-11-21T01:14:30;-16261.94;;;-139.71;90.67
3598;BME280;1813;52.016;8.714;2023-11-21T01:17:06;-16261.94;;;-139.71;90.50
3598;BME280;1813;52.016;8.714;2023-11-21T01:19:39;-16261.94;;;-139.71;90.26
3598;BME280;1813;52.016;8.714;2023-11-21T01:22:13;-16261.94;;;-139.71;90.23
3598;BME280;1813;52.016;8.714;2023-11-21T01:24:47;-16261.94;;;-139.71;90.23
3598;BME280;1813;52.016;8.714;2023-11-21T01:27:20;-16261.94;;;-139.71;90.21
3598;BME280;1813;52.016;8.714;2023-11-21T01:29:53;-16261.94;;;-139.71;89.98
3598;BME280;1813;52.016;8.714;2023-11-21T01:32:29;-16261.94;;;-139.71;89.95
3598;BME280;1813;52.016;8.714;2023-11-21T01:35:03;-16261.94;;;-139.71;90.04
3598;BME280;1813;52.016;8.714;2023-11-21T01:37:38;-16261.94;;;-139.71;89.93
3598;BME280;1813;52.016;8.714;2023-11-21T01:40:11;-16261.94;;;-139.71;89.97
3598;BME280;1813;52.016;8.714;2023-11-21T01:42:45;-16261.94;;;-139.71;90.02
3598;BME280;1813;52.016;8.714;2023-11-21T01:45:18;-16261.94;;;-139.71;90.04
3598;BME280;1813;52.016;8.714;2023-11-21T01:47:55;-16261.94;;;-139.71;90.17
3598;BME280;1813;52.016;8.714;2023-11-21T01:50:28;-16261.94;;;-139.71;90.11
3598;BME280;1813;52.016;8.714;2023-11-21T01:53:02;-16261.94;;;-139.71;90.24
3598;BME280;1813;52.016;8.714;2023-11-21T01:55:37;-16261.94;;;-139.71;90.18
3598;BME280;1813;52.016;8.714;2023-11-21T01:58:11;-16261.94;;;-139.71;90.05
3598;BME280;1813;52.016;8.714;2023-11-21T02:00:45;-16261.94;;;-139.71;89.93
3598;BME280;1813;52.016;8.714;2023-11-21T02:03:23;-16261.94;;;-139.71;89.97
3598;BME280;1813;52.016;8.714;2023-11-21T02:05:57;-16261.94;;;-139.71;89.85
3598;BME280;1813;52.016;8.714;2023-11-21T02:08:31;-16261.94;;;-139.71;89.82
3598;BME280;1813;52.016;8.714;2023-11-21T02:11:04;-16261.94;;;-139.71;89.78
3598;BME280;1813;52.016;8.714;2023-11-21T02:13:39;-16261.94;;;-139.71;89.55
3598;BME280;1813;52.016;8.714;2023-11-21T02:16:16;-16261.94;;;-139.71;89.50
3598;BME280;1813;52.016;8.714;2023-11-21T02:18:52;-16261.94;;;-139.71;89.56
3598;BME280;1813;52.016;8.714;2023-11-21T02:21:26;-16261.94;;;-139.71;89.69
3598;BME280;1813;52.016;8.714;2023-11-21T02:24:04;-16261.94;;;-139.71;89.50
3598;BME280;1813;52.016;8.714;2023-11-21T02:26:37;-16261.94;;;-139.71;89.37
3598;BME280;1813;52.016;8.714;2023-11-21T02:29:11;-16261.94;;;-139.71;89.29
3598;BME280;1813;52.016;8.714;2023-11-21T02:31:48;-16261.94;;;-139.71;89.25
3598;BME280;1813;52.016;8.714;2023-11-21T02:34:22;-16261.94;;;-139.71;89.37
3598;BME280;1813;52.016;8.714;2023-11-21T02:36:56;-16261.94;;;-139.71;89.50
3598;BME280;1813;52.016;8.714;2023-11-21T02:39:32;-16261.94;;;-139.71;89.51
3598;BME280;1813;52.016;8.714;2023-11-21T02:42:06;-16261.94;;;-139.71;89.45
3598;BME280;1813;52.016;8.714;2023-11-21T02:44:40;-16261.94;;;-139.71;89.34
3598;BME280;1813;52.016;8.714;2023-11-21T02:47:13;-16261.94;;;-139.71;89.25
3598;BME280;1813;52.016;8.714;2023-11-21T02:49:46;-16261.94;;;-139.71;89.03
3598;BME280;1813;52.016;8.714;2023-11-21T02:52:20;-16261.94;;;-139.71;89.00
3598;BME280;1813;52.016;8.714;2023-11-21T02:54:56;-16261.94;;;-139.71;88.77
3598;BME280;1813;52.016;8.714;2023-11-21T02:57:30;-16261.94;;;-139.71;88.68
3598;BME280;1813;52.016;8.714;2023-11-21T03:00:05;-16261.94;;;-139.71;88.13
3598;BME280;1813;52.016;8.714;2023-11-21T03:02:39;-16261.94;;;-139.71;87.92
3598;BME280;1813;52.016;8.714;2023-11-21T03:05:12;-16261.94;;;-139.71;87.82
3598;BME280;1813;52.016;8.714;2023-11-21T03:07:46;-16261.94;;;-139.71;87.80
3598;BME280;1813;52.016;8.714;2023-11-21T03:10:22;-16261.94;;;-139.71;87.83
3598;BME280;1813;52.016;8.714;2023-11-21T03:12:56;-16261.94;;;-139.71;88.08
3598;BME280;1813;52.016;8.714;2023-11-21T03:15:29;-16261.94;;;-139.71;88.20
3598;BME280;1813;52.016;8.714;2023-11-21T03:18:03;-16261.94;;;-139.71;88.30
3598;BME280;1813;52.016;8.714;2023-11-21T03:20:36;-16261.94;;;-139.71;88.58
3598;BME280;1813;52.016;8.714;2023-11-21T03:23:10;-16261.94;;;-139.71;88.65
3598;BME280;1813;52.016;8.714;2023-11-21T03:25:46;-16261.94;;;-139.71;88.86
3598;BME280;1813;52.016;8.714;2023-11-21T03:28:19;-16261.94;;;-139.71;89.06
3598;BME280;1813;52.016;8.714;2023-11-21T03:30:54;-16261.94;;;-139.71;89.05
3598;BME280;1813;52.016;8.714;2023-11-21T03:33:28;-16261.94;;;-139.71;88.95
3598;BME280;1813;52.016;8.714;2023-11-21T03:36:02;-16261.94;;;-139.71;88.88
3598;BME280;1813;52.016;8.714;2023-11-21T03:38:36;-16261.94;;;-139.71;88.80
3598;BME280;1813;52.016;8.714;2023-11-21T03:41:12;-16261.94;;;-139.71;88.85
3598;BME280;1813;52.016;8.714;2023-11-21T03:43:45;-16261.94;;;-139.71;88.59
3598;BME280;1813;52.016;8.714;2023-11-21T03:46:19;-16261.94;;;-139.71;88.63
3598;BME280;1813;52.016;8.714;2023-11-21T03:48:52;-16261.94;;;-139.71;88.56
3598;BME280;1813;52.016;8.714;2023-11-21T03:51:26;-16261.94;;;-139.71;88.51
3598;BME280;1813;52.016;8.714;2023-11-21T03:53:59;-16261.94;;;-139.71;88.23
3598;BME280;1813;52.016;8.714;2023-11-21T03:56:35;-16261.94;;;-139.71;87.87
3598;BME280;1813;52.016;8.714;2023-11-21T03:59:09;-16261.94;;;-139.71;87.75
3598;BME280;1813;52.016;8.714;2023-11-21T04:01:42;-16261.94;;;-139.71;87.61
3598;BME280;1813;52.016;8.714;2023-11-21T04:04:15;-16261.94;;;-139.71;87.77
3598;BME280;1813;52.016;8.714;2023-11-21T04:06:50;-16261.94;;;-139.71;87.91
3598;BME280;1813;52.016;8.714;2023-11-21T04:09:25;-16261.94;;;-139.71;87.97
3598;BME280;1813;52.016;8.714;2023-11-21T04:12:01;-16261.94;;;-139.71;88.13
3598;BME280;1813;52.016;8.714;2023-11-21T04:14:34;-16261.94;;;-139.71;88.17
3598;BME280;1813;52.016;8.714;2023-11-21T04:17:08;-16261.94;;;-139.71;88.27
3598;BME280;1813;52.016;8.714;2023-11-21T04:19:41;-16261.94;;;-139.71;88.51
3598;BME280;1813;52.016;8.714;2023-11-21T04:22:14;-16261.94;;;-139.71;88.65
3598;BME280;1813;52.016;8.714;2023-11-21T04:24:48;-16261.94;;;-139.71;88.83
3598;BME280;1813;52.016;8.714;2023-11-21T04:27:24;-16261.94;;;-139.71;88.73
3598;BME280;1813;52.016;8.714;2023-11-21T04:29:58;-16261.94;;;-139.71;88.94
3598;BME280;1813;52.016;8.714;2023-11-21T04:32:31;-16261.94;;;-139.71;88.82
3598;BME280;1813;52.016;8.714;2023-11-21T04:35:06;-16261.94;;;-139.71;88.92
3598;BME280;1813;52.016;8.714;2023-11-21T04:37:39;-16261.94;;;-139.71;88.86
3598;BME280;1813;52.016;8.714;2023-11-21T04:40:13;-16261.94;;;-139.71;88.98
3598;BME280;1813;52.016;8.714;2023-11-21T04:42:49;-16261.94;;;-139.71;89.08
3598;BME280;1813;52.016;8.714;2023-11-21T04:45:22;-16261.94;;;-139.71;89.06
3598;BME280;1813;52.016;8.714;2023-11-21T04:47:56;-16261.94;;;-139.71;89.18
3598;BME280;1813;52.016;8.714;2023-11-21T04:50:29;-16261.94;;;-139.71;89.09
3598;BME280;1813;52.016;8.714;2023-11-21T04:53:03;-16261.94;;;-139.71;89.04
3598;BME280;1813;52.016;8.714;2023-11-21T04:55:36;-16261.94;;;-139.71;88.87
3598;BME280;1813;52.016;8.714;2023-11-21T04:58:12;-16261.94;;;-139.71;88.71
3598;BME280;1813;52.016;8.714;2023-11-21T05:00:46;-16261.94;;;-139.71;88.65
3598;BME280;1813;52.016;8.714;2023-11-21T05:03:20;-16261.94;;;-139.71;88.62
3598;BME280;1813;52.016;8.714;2023-11-21T05:05:54;-16261.94;;;-139.71;88.52
3598;BME280;1813;52.016;8.714;2023-11-21T05:08:27;-16261.94;;;-139.71;88.59
3598;BME280;1813;52.016;8.714;2023-11-21T05:11:01;-16261.94;;;-139.71;88.50
3598;BME280;1813;52.016;8.714;2023-11-21T05:13:37;-16261.94;;;-139.71;88.32
3598;BME280;1813;52.016;8.714;2023-11-21T05:16:10;-16261.94;;;-139.71;88.45
3598;BME280;1813;52.016;8.714;2023-11-21T05:18:45;-16261.94;;;-139.71;88.46
3598;BME280;1813;52.016;8.714;2023-11-21T05:21:18;-16261.94;;;-139.71;88.74
3598;BME280;1813;52.016;8.714;2023-11-21T05:23:52;-16261.94;;;-139.71;88.75
3598;BME280;1813;52.016;8.714;2023-11-21T05:26:25;-16261.94;;;-139.71;88.78
3598;BME280;1813;52.016;8.714;2023-11-21T05:29:02;-16261.94;;;-139.71;88.90
3598;BME280;1813;52.016;8.714;2023-11-21T05:31:35;-16261.94;;;-139.71;88.85
3598;BME280;1813;52.016;8.714;2023-11-21T05:34:09;-16261.94;;;-139.71;88.81
3598;BME280;1813;52.016;8.714;2023-11-21T05:36:43;-16261.94;;;-139.71;89.01
3598;BME280;1813;52.016;8.714;2023-11-21T05:39:16;-16261.94;;;-139.71;89.24
3598;BME280;1813;52.016;8.714;2023-11-21T05:41:51;-16261.94;;;-139.71;89.44
3598;BME280;1813;52.016;8.714;2023-11-21T05:44:27;-16261.94;;;-139.71;89.68
3598;BME280;1813;52.016;8.714;2023-11-21T05:47:00;-16261.94;;;-139.71;89.83
3598;BME280;1813;52.016;8.714;2023-11-21T05:49:34;-16261.94;;;-139.71;89.87
3598;BME280;1813;52.016;8.714;2023-11-21T05:52:07;-16261.94;;;-139.71;90.00
3598;BME280;1813;52.016;8.714;2023-11-21T05:54:41;-16261.94;;;-139.71;90.33
3598;BME280;1813;52.016;8.714;2023-11-21T05:57:14;-16261.94;;;-139.71;90.19
3598;BME280;1813;52.016;8.714;2023-11-21T05:59:51;-16261.94;;;-139.71;90.10
3598;BME280;1813;52.016;8.714;2023-11-21T06:02:25;-16261.94;;;-139.71;90.08
3598;BME280;1813;52.016;8.714;2023-11-21T06:04:59;-16261.94;;;-139.71;89.95
3598;BME280;1813;52.016;8.714;2023-11-21T06:07:34;-16261.94;;;-139.71;89.87
3598;BME280;1813;52.016;8.714;2023-11-21T06:10:10;-16261.94;;;-139.71;89.76
3598;BME280;1813;52.016;8.714;2023-11-21T06:12:44;-16261.94;;;-139.71;89.83
3598;BME280;1813;52.016;8.714;2023-11-21T06:15:21;-16261.94;;;-139.71;89.78
3598;BME280;1813;52.016;8.714;2023-11-21T06:17:55;-16261.94;;;-139.71;89.87
3598;BME280;1813;52.016;8.714;2023-11-21T06:20:30;-16261.94;;;-139.71;89.71
3598;BME280;1813;52.016;8.714;2023-11-21T06:23:04;-16261.94;;;-139.71;89.83
3598;BME280;1813;52.016;8.714;2023-11-21T06:25:37;-16261.94;;;-139.71;89.97
3598;BME280;1813;52.016;8.714;2023-11-21T06:28:11;-16261.94;;;-139.71;90.26
3598;BME280;1813;52.016;8.714;2023-11-21T06:30:50;-16261.94;;;-139.71;90.33
3598;BME280;1813;52.016;8.714;2023-11-21T06:33:23;-16261.94;;;-139.71;90.46
3598;BME280;1813;52.016;8.714;2023-11-21T06:35:58;-16261.94;;;-139.71;90.43
3598;BME280;1813;52.016;8.714;2023-11-21T06:38:33;-16261.94;;;-139.71;90.48
3598;BME280;1813;52.016;8.714;2023-11-21T06:41:06;-16261.94;;;-139.71;90.42
3598;BME280;1813;52.016;8.714;2023-11-21T06:43:39;-16261.94;;;-139.71;90.59
3598;BME280;1813;52.016;8.714;2023-11-21T06:46:17;-16261.94;;;-139.71;90.60
3598;BME280;1813;52.016;8.714;2023-11-21T06:48:50;-16261.94;;;-139.71;90.55
3598;BME280;1813;52.016;8.714;2023-11-21T06:51:24;-16261.94;;;-139.71;90.39
3598;BME280;1813;52.016;8.714;2023-11-21T06:53:57;-16261.94;;;-139.71;90.48
3598;BME280;1813;52.016;8.714;2023-11-21T06:56:31;-16261.94;;;-139.71;90.36
3598;BME280;1813;52.016;8.714;2023-11-21T06:59:04;-16261.94;;;-139.71;90.35
3598;BME280;1813;52.016;8.714;2023-11-21T07:01:42;-16261.94;;;-139.71;90.10
3598;BME280;1813;52.016;8.714;2023-11-21T07:04:15;-16261.94;;;-139.71;89.86
3598;BME280;1813;52.016;8.714;2023-11-21T07:06:49;-16261.94;;;-139.71;89.54
3598;BME280;1813;52.016;8.714;2023-11-21T07:09:22;-16261.94;;;-139.71;89.51
3598;BME280;1813;52.016;8.714;2023-11-21T07:11:56;-16261.94;;;-139.71;89.74
3598;BME280;1813;52.016;8.714;2023-11-21T07:14:30;-16261.94;;;-139.71;89.86
3598;BME280;1813;52.016;8.714;2023-11-21T07:17:06;-16261.94;;;-139.71;89.91
3598;BME280;1813;52.016;8.714;2023-11-21T07:19:39;-16261.94;;;-139.71;90.35
3598;BME280;1813;52.016;8.714;2023-11-21T07:22:13;-16261.94;;;-139.71;90.39
3598;BME280;1813;52.016;8.714;2023-11-21T07:24:51;-16261.94;;;-139.71;90.41
3598;BME280;1813;52.016;8.714;2023-11-21T07:27:27;-16261.94;;;-139.71;90.59
3598;BME280;1813;52.016;8.714;2023-11-21T07:30:00;-16261.94;;;-139.71;90.63
3598;BME280;1813;52.016;8.714;2023-11-21T07:32:37;-16261.94;;;-139.71;90.89
3598;BME280;1813;52.016;8.714;2023-11-21T07:35:11;-16261.94;;;-139.71;90.81
3598;BME280;1813;52.016;8.714;2023-11-21T07:37:45;-16261.94;;;-139.71;90.95
3598;BME280;1813;52.016;8.714;2023-11-21T07:40:19;-16261.94;;;-139.71;91.09
3598;BME280;1813;52.016;8.714;2023-11-21T07:42:53;-16261.94;;;-139.71;91.12
3598;BME280;1813;52.016;8.714;2023-11-21T07:45:27;-16261.94;;;-139.71;91.11
3598;BME280;1813;52.016;8.714;2023-11-21T07:48:04;-16261.94;;;-139.71;91.13
3598;BME280;1813;52.016;8.714;2023-11-21T07:50:38;-16261.94;;;-139.71;91.02
3598;BME280;1813;52.016;8.714;2023-11-21T07:53:11;-16261.94;;;-139.71;90.92
3598;BME280;1813;52.016;8.714;2023-11-21T07:55:45;-16261.94;;;-139.71;90.90
3598;BME280;1813;52.016;8.714;2023-11-21T07:58:18;-16261.94;;;-139.71;91.21
3598;BME280;1813;52.016;8.714;2023-11-21T08:00:51;-16261.94;;;-139.71;91.22
3598;BME280;1813;52.016;8.714;2023-11-21T08:03:28;-16261.94;;;-139.71;91.31
3598;BME280;1813;52.016;8.714;2023-11-21T08:06:03;-16261.94;;;-139.71;91.55
3598;BME280;1813;52.016;8.714;2023-11-21T08:08:36;-16261.94;;;-139.71;91.73
3598;BME280;1813;52.016;8.714;2023-11-21T08:11:09;-16261.94;;;-139.71;91.88
3598;BME280;1813;52.016;8.714;2023-11-21T08:13:43;-16261.94;;;-139.71;91.92
3598;BME280;1813;52.016;8.714;2023-11-21T08:16:17;-16261.94;;;-139.71;92.05
3598;BME280;1813;52.016;8.714;2023-11-21T08:18:53;-16261.94;;;-139.71;91.98
3598;BME280;1813;52.016;8.714;2023-11-21T08:21:27;-16261.94;;;-139.71;91.99
3598;BME280;1813;52.016;8.714;2023-11-21T08:24:01;-16261.94;;;-139.71;91.93
3598;BME280;1813;52.016;8.714;2023-11-21T08:26:35;-16261.94;;;-139.71;92.03
3598;BME280;1813;52.016;8.714;2023-11-21T08:29:08;-16261.94;;;-139.71;92.01
3598;BME280;1813;52.016;8.714;2023-11-21T08:31:42;-16261.94;;;-139.71;92.02
3598;BME280;1813;52.016;8.714;2023-11-21T08:34:19;-16261.94;;;-139.71;92.02
3598;BME280;1813;52.016;8.714;2023-11-21T08:36:53;-16261.94;;;-139.71;92.03
3598;BME280;1813;52.016;8.714;2023-11-21T08:39:27;-16261.94;;;-139.71;91.95
3598;BME280;1813;52.016;8.714;2023-11-21T08:42:01;-16261.94;;;-139.71;91.95
3598;BME280;1813;52.016;8.714;2023-11-21T08:44:34;-16261.94;;;-139.71;91.88
3598;BME280;1813;52.016;8.714;2023-11-21T08:47:09;-16261.94;;;-139.71;91.83
3598;BME280;1813;52.016;8.714;2023-11-21T08:49:45;-16261.94;;;-139.71;91.77
3598;BME280;1813;52.016;8.714;2023-11-21T08:52:18;-16261.94;;;-139.71;91.73
3598;BME280;1813;52.016;8.714;2023-11-21T08:54:53;-16261.94;;;-139.71;91.85
3598;BME280;1813;52.016;8.714;2023-11-21T08:57:27;-16261.94;;;-139.71;91.99
3598;BME280;1813;52.016;8.714;2023-11-21T09:00:01;-16261.94;;;-139.71;91.88
3598;BME280;1813;52.016;8.714;2023-11-21T09:02:38;-16261.94;;;-139.71;91.87
3598;BME280;1813;52.016;8.714;2023-11-21T09:05:15;-16261.94;;;-139.71;92.07
3598;BME280;1813;52.016;8.714;2023-11-21T09:07:49;-16261.94;;;-139.71;91.95
3598;BME280;1813;52.016;8.714;2023-11-21T09:10:23;-16261.94;;;-139.71;92.07
3598;BME280;1813;52.016;8.714;2023-11-21T09:12:56;-16261.94;;;-139.71;92.11
3598;BME280;1813;52.016;8.714;2023-11-21T09:15:29;-16261.94;;;-139.71;92.03
3598;BME280;1813;52.016;8.714;2023-11-21T09:18:03;-16261.94;;;-139.71;92.23
3598;BME280;1813;52.016;8.714;2023-11-21T09:20:39;-16261.94;;;-139.71;91.98
3598;BME280;1813;52.016;8.714;2023-11-21T09:23:13;-16261.94;;;-139.71;92.33
3598;BME280;1813;52.016;8.714;2023-11-21T09:25:46;-16261.94;;;-139.71;92.29
3598;BME280;1813;52.016;8.714;2023-11-21T09:28:20;-16261.94;;;-139.71;92.26
3598;BME280;1813;52.016;8.714;2023-11-21T09:30:54;-16261.94;;;-139.71;92.11
3598;BME280;1813;52.016;8.714;2023-11-21T09:33:28;-16261.94;;;-139.71;92.11
3598;BME280;1813;52.016;8.714;2023-11-21T09:36:05;-16261.94;;;-139.71;91.99
3598;BME280;1813;52.016;8.714;2023-11-21T09:38:39;-16261.94;;;-139.71;91.84
3598;BME280;1813;52.016;8.714;2023-11-21T09:41:20;-16261.94;;;-139.71;91.80
3598;BME280;1813;52.016;8.714;2023-11-21T09:43:56;-16261.94;;;-139.71;91.70
3598;BME280;1813;52.016;8.714;2023-11-21T09:46:31;-16261.94;;;-139.71;91.77
3598;BME280;1813;52.016;8.714;2023-11-21T09:49:05;-16261.94;;;-139.71;91.92
3598;BME280;1813;52.016;8.714;2023-11-21T09:51:46;-16261.94;;;-139.71;91.92
3598;BME280;1813;52.016;8.714;2023-11-21T09:54:21;-16261.94;;;-139.71;91.92
3598;BME280;1813;52.016;8.714;2023-11-21T09:56:55;-16261.94;;;-139.71;92.03
3598;BME280;1813;52.016;8.714;2023-11-21T09:59:30;-16261.94;;;-139.71;91.80
3598;BME280;1813;52.016;8.714;2023-11-21T10:02:07;-16261.94;;;-139.71;91.88
3598;BME280;1813;52.016;8.714;2023-11-21T10:04:43;-16261.94;;;-139.71;91.80
3598;BME280;1813;52.016;8.714;2023-11-21T10:07:20;-16261.94;;;-139.71;92.07
3598;BME280;1813;52.016;8.714;2023-11-21T10:09:54;-16261.94;;;-139.71;92.23
3598;BME280;1813;52.016;8.714;2023-11-21T10:12:29;-16261.94;;;-139.71;92.53
3598;BME280;1813;52.016;8.714;2023-11-21T10:15:08;-16261.94;;;-139.71;92.46
3598;BME280;1813;52.016;8.714;2023-11-21T10:17:44;-16261.94;;;-139.71;92.72
3598;BME280;1813;52.016;8.714;2023-11-21T10:20:19;-16261.94;;;-139.71;92.84
3598;BME280;1813;52.016;8.714;2023-11-21T10:22:55;-16261.94;;;-139.71;93.06
3598;BME280;1813;52.016;8.714;2023-11-21T10:25:30;-16261.94;;;-139.71;92.92
3598;BME280;1813;52.016;8.714;2023-11-21T10:28:04;-16261.94;;;-139.71;92.85
3598;BME280;1813;52.016;8.714;2023-11-21T10:30:38;-16261.94;;;-139.71;93.04
3598;BME280;1813;52.016;8.714;2023-11-21T10:33:12;-16261.94;;;-139.71;92.91
3598;BME280;1813;52.016;8.714;2023-11-21T10:35:47;-16261.94;;;-139.71;93.14
3598;BME280;1813;52.016;8.714;2023-11-21T10:38:24;-16261.94;;;-139.71;93.21
3598;BME280;1813;52.016;8.714;2023-11-21T10:40:59;-16261.94;;;-139.71;93.10
3598;BME280;1813;52.016;8.714;2023-11-21T10:43:35;-16261.94;;;-139.71;93.22
3598;BME280;1813;52.016;8.714;2023-11-21T10:46:08;-16261.94;;;-139.71;93.29
3598;BME280;1813;52.016;8.714;2023-11-21T10:48:42;-16261.94;;;-139.71;93.67
3598;BME280;1813;52.016;8.714;2023-11-21T10:51:16;-16261.94;;;-139.71;93.64
3598;BME280;1813;52.016;8.714;2023-11-21T10:53:52;-16261.94;;;-139.71;93.85
3598;BME280;1813;52.016;8.714;2023-11-21T10:56:27;-16261.94;;;-139.71;93.96
3598;BME280;1813;52.016;8.714;2023-11-21T10:59:01;-16261.94;;;-139.71;93.68
3598;BME280;1813;52.016;8.714;2023-11-21T11:01:36;-16261.94;;;-139.71;93.41
3598;BME280;1813;52.016;8.714;2023-11-21T11:04:11;-16261.94;;;-139.71;93.19
3598;BME280;1813;52.016;8.714;2023-11-21T11:06:50;-16261.94;;;-139.71;92.91
3598;BME280;1813;52.016;8.714;2023-11-21T11:09:27;-16261.94;;;-139.71;92.40
3598;BME280;1813;52.016;8.714;2023-11-21T11:12:01;-16261.94;;;-139.71;92.44
3598;BME280;1813;52.016;8.714;2023-11-21T11:14:35;-16261.94;;;-139.71;92.08
3598;BME280;1813;52.016;8.714;2023-11-21T11:17:10;-16261.94;;;-139.71;91.89
3598;BME280;1813;52.016;8.714;2023-11-21T11:19:43;-16261.94;;;-139.71;91.77
3598;BME280;1813;52.016;8.714;2023-11-21T11:22:27;-16261.94;;;-139.71;91.52
3598;BME280;1813;52.016;8.714;2023-11-21T11:25:19;-16261.94;;;-139.71;91.36
3598;BME280;1813;52.016;8.714;2023-11-21T11:28:04;-16261.94;;;-139.71;91.14
3598;BME280;1813;52.016;8.714;2023-11-21T11:30:47;-16261.94;;;-139.71;91.04
3598;BME280;1813;52.016;8.714;2023-11-21T11:33:37;-16261.94;;;-139.71;91.17
3598;BME280;1813;52.016;8.714;2023-11-21T11:36:18;-16261.94;;;-139.71;90.88
3598;BME280;1813;52.016;8.714;2023-11-21T11:38:55;-16261.94;;;-139.71;90.75
3598;BME280;1813;52.016;8.714;2023-11-21T11:41:32;-16261.94;;;-139.71;90.49
3598;BME280;1813;52.016;8.714;2023-11-21T11:47:27;-16261.94;;;-139.71;90.14
3598;BME280;1813;52.016;8.714;2023-11-21T11:50:04;-16261.94;;;-139.71;89.83
3598;BME280;1813;52.016;8.714;2023-11-21T11:52:45;-16261.94;;;-139.71;89.76
3598;BME280;1813;52.016;8.714;2023-11-21T11:55:20;-16261.94;;;-139.71;89.49
3598;BME280;1813;52.016;8.714;2023-11-21T11:57:56;-16261.94;;;-139.71;89.44
3598;BME280;1813;52.016;8.714;2023-11-21T12:00:34;-16261.94;;;-139.71;89.13
3598;BME280;1813;52.016;8.714;2023-11-21T12:03:10;-16261.94;;;-139.71;88.85
3598;BME280;1813;52.016;8.714;2023-11-21T12:05:46;-16261.94;;;-139.71;88.68
3598;BME280;1813;52.016;8.714;2023-11-21T12:08:20;-16261.94;;;-139.71;88.61
3598;BME280;1813;52.016;8.714;2023-11-21T12:11:01;-16261.94;;;-139.71;88.32
3598;BME280;1813;52.016;8.714;2023-11-21T12:13:38;-16261.94;;;-139.71;88.04
3598;BME280;1813;52.016;8.714;2023-11-21T12:16:12;-16261.94;;;-139.71;87.61
3598;BME280;1813;52.016;8.714;2023-11-21T12:18:46;-16261.94;;;-139.71;87.62
3598;BME280;1813;52.016;8.714;2023-11-21T12:21:20;-16261.94;;;-139.71;87.54
3598;BME280;1813;52.016;8.714;2023-11-21T12:23:56;-16261.94;;;-139.71;87.54
3598;BME280;1813;52.016;8.714;2023-11-21T12:26:29;-16261.94;;;-139.71;87.14
3598;BME280;1813;52.016;8.714;2023-11-21T12:29:06;-16261.94;;;-139.71;86.44
3598;BME280;1813;52.016;8.714;2023-11-21T12:31:41;-16261.94;;;-139.71;85.89
3598;BME280;1813;52.016;8.714;2023-11-21T12:34:15;-16261.94;;;-139.71;85.46
3598;BME280;1813;52.016;8.714;2023-11-21T12:36:48;-16261.94;;;-139.71;85.46
3598;BME280;1813;52.016;8.714;2023-11-21T12:39:25;-16261.94;;;-139.71;85.07
3598;BME280;1813;52.016;8.714;2023-11-21T12:41:59;-16261.94;;;-139.71;84.57
3598;BME280;1813;52.016;8.714;2023-11-21T12:44:36;-16261.94;;;-139.71;84.36
3598;BME280;1813;52.016;8.714;2023-11-21T12:47:16;-16261.94;;;-139.71;84.24
3598;BME280;1813;52.016;8.714;2023-11-21T12:49:52;-16261.94;;;-139.71;83.82
3598;BME280;1813;52.016;8.714;2023-11-21T12:52:25;-16261.94;;;-139.71;83.32
3598;BME280;1813;52.016;8.714;2023-11-21T12:54:59;-16261.94;;;-139.71;83.11
3598;BME280;1813;52.016;8.714;2023-11-21T12:57:33;-16261.94;;;-139.71;83.26
3598;BME280;1813;52.016;8.714;2023-11-21T13:00:12;-16261.94;;;-139.71;83.20
3598;BME280;1813;52.016;8.714;2023-11-21T13:02:58;-16261.94;;;-139.71;83.15
3598;BME280;1813;52.016;8.714;2023-11-21T13:05:33;-16261.94;;;-139.71;82.94
3598;BME280;1813;52.016;8.714;2023-11-21T13:08:10;-16261.94;;;-139.71;82.74
3598;BME280;1813;52.016;8.714;2023-11-21T13:10:45;-16261.94;;;-139.71;82.42
3598;BME280;1813;52.016;8.714;2023-11-21T13:13:19;-16261.94;;;-139.71;82.49
3598;BME280;1813;52.016;8.714;2023-11-21T13:15:55;-16261.94;;;-139.71;82.14
3598;BME280;1813;52.016;8.714;2023-11-21T13:18:32;-16261.94;;;-139.71;81.85
3598;BME280;1813;52.016;8.714;2023-11-21T13:21:06;-16261.94;;;-139.71;81.65
3598;BME280;1813;52.016;8.714;2023-11-21T13:23:44;-16261.94;;;-139.71;81.90
3598;BME280;1813;52.016;8.714;2023-11-21T13:26:20;-16261.94;;;-139.71;82.22
3598;BME280;1813;52.016;8.714;2023-11-21T13:28:56;-16261.94;;;-139.71;81.87
3598;BME280;1813;52.016;8.714;2023-11-21T13:31:32;-16261.94;;;-139.71;81.76
3598;BME280;1813;52.016;8.714;2023-11-21T13:34:07;-16261.94;;;-139.71;81.20